Time;durP1;ratioP1;P1;durP2;ratioP2;P2;SDS_P1;SDS_P2;PMS_P1;PMS_P2;Temp;Humidity;BMP_temperature;BMP_pressure;BME280_temperature;BME280_humidity;BME280_pressure;Samples;Min_cycle;Max_cycle;Signal;HPM_P1;HPM_P2
2022/06/05 00:00:18;;;;;;;11.57;7.20;;;;;;;18.95;55.06;101591.16;5036351;28;20056;-81
2022/06/05 00:03:01;;;;;;;10.55;7.75;;;;;;;18.91;55.38;101597.81;5037302;28;20025;-82
2022/06/05 00:05:34;;;;;;;11.93;7.35;;;;;;;18.88;55.58;101594.59;5047131;27;20045;-81
2022/06/05 00:08:25;;;;;;;8.77;7.00;;;;;;;18.85;55.45;101593.91;5044265;27;20034;-81
2022/06/05 00:10:55;;;;;;;9.73;6.40;;;;;;;18.82;55.24;101579.88;5036039;28;20051;-82
2022/06/05 00:13:39;;;;;;;8.88;6.78;;;;;;;18.83;55.03;101578.91;5035002;28;20021;-82
2022/06/05 00:16:06;;;;;;;8.02;5.78;;;;;;;18.76;55.61;101569.72;5032346;28;20061;-82
2022/06/05 00:18:34;;;;;;;10.25;5.95;;;;;;;18.75;55.53;101565.34;5034044;28;20056;-82
2022/06/05 00:20:59;;;;;;;8.33;6.43;;;;;;;18.71;55.85;101566.66;5034435;28;20037;-81
2022/06/05 00:23:25;;;;;;;8.73;6.00;;;;;;;18.66;55.82;101572.50;5040244;28;20018;-80
2022/06/05 00:26:02;;;;;;;7.55;6.28;;;;;;;18.62;55.88;101560.34;5032205;28;20041;-83
2022/06/05 00:28:59;;;;;;;6.97;5.90;;;;;;;18.64;55.63;101563.72;5028094;28;20042;-81
2022/06/05 00:31:24;;;;;;;11.32;6.55;;;;;;;18.56;56.11;101559.09;5032119;28;20056;-82
2022/06/05 00:33:50;;;;;;;8.90;5.87;;;;;;;18.53;56.59;101556.72;5036878;28;20038;-82
2022/06/05 00:36:39;;;;;;;8.15;5.85;;;;;;;18.54;56.04;101542.28;5037487;28;20021;-82
2022/06/05 00:39:14;;;;;;;7.28;5.53;;;;;;;18.47;55.92;101544.72;5037535;28;20095;-80
2022/06/05 00:42:05;;;;;;;11.95;6.05;;;;;;;18.45;56.79;101537.78;5035556;28;20113;-82
2022/06/05 00:44:38;;;;;;;9.93;6.40;;;;;;;18.41;56.85;101537.25;5035434;28;20034;-81
2022/06/05 00:47:05;;;;;;;7.80;5.93;;;;;;;18.39;56.86;101543.81;5037135;28;20025;-81
2022/06/05 00:50:08;;;;;;;8.00;5.45;;;;;;;18.40;56.02;101538.28;5036960;28;20014;-82
2022/06/05 00:52:39;;;;;;;7.07;5.60;;;;;;;18.34;56.67;101546.94;5048630;28;20046;-80
2022/06/05 00:55:06;;;;;;;9.93;5.50;;;;;;;18.30;56.80;101542.84;5024794;28;20049;-81
2022/06/05 00:57:34;;;;;;;6.55;5.60;;;;;;;18.29;57.08;101544.69;5036749;28;20097;-80
2022/06/05 01:00:01;;;;;;;6.10;5.50;;;;;;;18.29;56.84;101544.69;5036390;28;20013;-81
2022/06/05 01:02:28;;;;;;;8.65;5.45;;;;;;;18.26;57.20;101536.09;5035975;28;20018;-81
2022/06/05 01:04:54;;;;;;;7.65;6.22;;;;;;;18.24;57.11;101548.84;5036527;28;20029;-80
2022/06/05 01:07:20;;;;;;;7.05;5.72;;;;;;;18.21;57.04;101544.59;5036738;28;20034;-80
2022/06/05 01:09:48;;;;;;;7.05;5.43;;;;;;;18.21;57.17;101544.59;5040076;28;20045;-82
2022/06/05 01:12:33;;;;;;;7.43;5.78;;;;;;;18.23;56.97;101547.16;5036852;28;20049;-81
2022/06/05 01:15:23;;;;;;;7.13;5.60;;;;;;;18.21;56.66;101557.22;5035889;28;20048;-80
2022/06/05 01:18:10;;;;;;;6.13;5.25;;;;;;;18.20;57.15;101564.44;5024491;28;20027;-81
2022/06/05 01:20:52;;;;;;;9.05;6.15;;;;;;;18.21;57.92;101624.44;5030844;28;20034;-80
2022/06/05 01:23:24;;;;;;;5.97;5.38;;;;;;;18.21;57.78;101619.91;5034838;28;20049;-81
2022/06/05 01:26:18;;;;;;;6.30;5.68;;;;;;;18.24;57.13;101571.19;5031825;28;20014;-81
2022/06/05 01:28:56;;;;;;;12.60;5.53;;;;;;;18.23;58.51;101617.06;5031870;28;20060;-81
2022/06/05 01:31:41;;;;;;;7.13;5.60;;;;;;;18.26;57.94;101616.75;5027966;28;20014;-81
2022/06/05 01:34:19;;;;;;;5.82;5.22;;;;;;;18.25;59.98;101570.22;5026942;28;20094;-81
2022/06/05 01:37:00;;;;;;;7.18;5.00;;;;;;;18.26;59.30;101538.78;5023311;28;20038;-80
2022/06/05 01:39:34;;;;;;;6.18;5.57;;;;;;;18.24;61.16;101573.88;5016573;28;20015;-81
2022/06/05 01:42:07;;;;;;;7.80;5.30;;;;;;;18.25;61.07;101594.41;5032691;28;20054;-81
2022/06/05 01:44:45;;;;;;;6.22;5.68;;;;;;;18.25;61.79;101572.91;5035876;28;20032;-81
2022/06/05 01:47:25;;;;;;;6.28;5.63;;;;;;;18.26;61.29;101557.59;5034774;28;20014;-82
2022/06/05 01:49:57;;;;;;;6.82;5.93;;;;;;;18.24;61.42;101549.69;5025900;28;20042;-81
2022/06/05 01:52:29;;;;;;;7.70;5.25;;;;;;;18.24;62.08;101549.69;5040096;27;20021;-82
2022/06/05 01:55:10;;;;;;;6.50;5.40;;;;;;;18.26;61.70;101550.38;5027577;28;20030;-82
2022/06/05 01:57:36;;;;;;;7.05;5.60;;;;;;;18.23;62.30;101534.53;5033015;28;20064;-82
2022/06/05 02:00:14;;;;;;;8.52;5.95;;;;;;;18.22;61.12;101521.25;5035623;28;20018;-81
2022/06/05 02:03:06;;;;;;;8.00;5.70;;;;;;;18.23;61.55;101517.56;5021490;28;20030;-81
2022/06/05 02:05:42;;;;;;;8.70;5.25;;;;;;;18.21;60.52;101522.25;5036070;28;20014;-81
2022/06/05 02:08:22;;;;;;;6.88;5.50;;;;;;;18.19;60.98;101518.88;5021968;28;20049;-82
2022/06/05 02:11:13;;;;;;;6.55;5.82;;;;;;;18.16;60.71;101505.75;5043033;27;20022;-81
2022/06/05 02:13:38;;;;;;;7.18;6.32;;;;;;;18.10;61.33;101488.34;5039048;28;20101;-81
2022/06/05 02:16:04;;;;;;;7.90;6.43;;;;;;;18.06;61.80;101473.53;5035869;28;20046;-81
2022/06/05 02:18:31;;;;;;;8.23;6.28;;;;;;;17.98;62.47;101465.38;5035638;28;20045;-82
2022/06/05 02:20:57;;;;;;;7.75;6.72;;;;;;;17.94;62.56;101462.16;5034578;28;20018;-81
2022/06/05 02:23:27;;;;;;;7.20;6.50;;;;;;;17.86;62.20;101457.50;5020594;28;20025;-81
2022/06/05 02:25:53;;;;;;;8.02;6.82;;;;;;;17.80;61.89;101444.66;5035268;28;20018;-82
2022/06/05 02:28:21;;;;;;;8.43;6.75;;;;;;;17.74;61.65;101439.91;5035477;28;20033;-82
2022/06/05 02:31:25;;;;;;;7.93;6.88;;;;;;;17.74;61.13;101437.22;5035572;28;20014;-81
2022/06/05 02:34:31;;;;;;;9.40;7.00;;;;;;;17.65;62.02;101421.97;5028392;28;20105;-81
2022/06/05 02:37:40;;;;;;;12.23;7.45;;;;;;;17.58;62.89;101419.03;5034271;28;20101;-80
2022/06/05 02:40:32;;;;;;;7.78;7.07;;;;;;;17.51;63.33;101407.22;5017218;28;20051;-80
2022/06/05 02:43:21;;;;;;;8.27;7.47;;;;;;;17.38;64.21;101397.63;5012231;28;20042;-81
2022/06/05 02:46:07;;;;;;;;;;;;;;;17.46;62.32;101393.38;5014137;28;20367;-80
2022/06/05 02:48:39;;;;;;;9.93;6.50;;;;;;;17.17;64.88;101371.06;5024180;28;19913;-80
2022/06/05 02:51:19;;;;;;;9.63;7.70;;;;;;;17.10;64.64;101369.97;5024791;28;20037;-81
2022/06/05 02:53:56;;;;;;;7.53;6.82;;;;;;;16.97;65.07;101370.28;5023086;28;20026;-81
2022/06/05 02:56:23;;;;;;;8.00;7.20;;;;;;;16.87;66.05;101371.28;5017461;28;20037;-81
2022/06/05 02:58:50;;;;;;;8.35;7.32;;;;;;;16.79;65.71;101366.66;5028574;28;20034;-80
2022/06/05 03:04:00;;;;;;;11.05;7.57;;;;;;;16.72;65.77;101373.56;5029285;28;20110;-81
2022/06/05 03:06:29;;;;;;;7.85;6.93;;;;;;;16.73;66.51;101378.78;5035174;28;20013;-80
2022/06/05 03:08:54;;;;;;;8.75;7.80;;;;;;;16.72;66.68;101370.88;5157475;22;20052;-79
2022/06/05 03:11:20;;;;;;;8.95;7.53;;;;;;;16.70;66.30;101370.19;5092352;28;20081;-80
2022/06/05 03:13:45;;;;;;;8.63;7.43;;;;;;;16.67;66.77;101368.66;5076044;28;20065;-81
2022/06/05 03:16:10;;;;;;;9.35;7.75;;;;;;;16.64;66.27;101368.94;5074439;28;20052;-83
2022/06/05 03:18:37;;;;;;;8.43;7.00;;;;;;;16.65;66.03;101366.13;5085113;28;20032;-82
2022/06/05 03:21:03;;;;;;;10.98;8.15;;;;;;;16.62;65.42;101370.88;5086222;28;20036;-82
2022/06/05 03:23:29;;;;;;;8.13;7.32;;;;;;;16.63;67.23;101389.53;5070468;28;20025;-81
2022/06/05 03:25:55;;;;;;;11.38;8.93;;;;;;;16.62;66.30;101384.31;5092876;28;20027;-81
2022/06/05 03:28:21;;;;;;;10.15;7.93;;;;;;;16.63;66.73;101386.00;5081805;28;20071;-82
2022/06/05 03:30:46;;;;;;;8.40;7.57;;;;;;;16.62;66.09;101384.31;5080702;28;20017;-81
2022/06/05 03:33:12;;;;;;;9.43;7.95;;;;;;;16.58;66.06;101386.44;5081236;28;20020;-82
2022/06/05 03:35:43;;;;;;;9.88;7.55;;;;;;;16.56;65.22;101388.41;5094336;28;20032;-82
2022/06/05 03:38:09;;;;;;;13.05;7.70;;;;;;;16.55;65.16;101391.25;5090119;28;20013;-81
2022/06/05 03:40:38;;;;;;;11.63;7.78;;;;;;;16.53;65.09;101387.88;5075724;28;20148;-82
2022/06/05 03:43:04;;;;;;;8.77;7.85;;;;;;;16.53;65.33;101390.53;5077910;28;20036;-81
2022/06/05 03:45:29;;;;;;;13.07;7.97;;;;;;;16.46;65.33;101377.69;5082546;28;20039;-82
2022/06/05 03:47:55;;;;;;;10.15;7.78;;;;;;;16.45;65.87;101370.66;5084168;28;20092;-82
2022/06/05 03:50:20;;;;;;;9.27;7.18;;;;;;;16.42;64.59;101378.13;5091131;28;20024;-80
2022/06/05 03:52:46;;;;;;;10.45;7.78;;;;;;;16.38;64.92;101384.78;5081956;28;20052;-80
2022/06/05 03:55:16;;;;;;;11.50;7.97;;;;;;;16.35;64.81;101385.88;5088300;28;20067;-80
2022/06/05 03:57:41;;;;;;;7.68;6.88;;;;;;;16.31;64.75;101389.84;5074249;28;20037;-81
2022/06/05 04:00:09;;;;;;;11.70;8.07;;;;;;;16.27;65.03;101385.78;5066789;28;20084;-82
2022/06/05 04:02:35;;;;;;;8.90;7.43;;;;;;;16.26;64.73;101387.59;5089427;28;20028;-81
2022/06/05 04:05:01;;;;;;;9.73;7.38;;;;;;;16.26;65.15;101384.06;5085777;28;20044;-80
2022/06/05 04:07:26;;;;;;;8.50;7.22;;;;;;;16.25;65.27;101387.72;5084152;28;20033;-80
2022/06/05 04:09:52;;;;;;;8.13;7.25;;;;;;;16.23;64.56;101387.88;5089779;28;20097;-82
2022/06/05 04:12:17;;;;;;;8.48;7.38;;;;;;;16.24;65.35;101380.69;5086100;28;20017;-81
2022/06/05 04:14:42;;;;;;;10.77;7.13;;;;;;;16.21;64.91;101375.63;5079973;28;20047;-83
2022/06/05 04:17:10;;;;;;;10.13;7.97;;;;;;;16.19;65.81;101370.41;5083497;28;20043;-82
2022/06/05 04:19:35;;;;;;;9.80;7.38;;;;;;;16.19;65.04;101369.56;5085287;28;20028;-81
2022/06/05 04:22:01;;;;;;;8.68;7.55;;;;;;;16.19;65.26;101364.19;5086332;28;20033;-81
2022/06/05 04:24:26;;;;;;;9.70;7.75;;;;;;;16.17;65.07;101363.47;5085537;28;20013;-81
2022/06/05 04:26:51;;;;;;;9.05;7.53;;;;;;;16.17;65.31;101368.81;5099400;28;20469;-81
2022/06/05 04:29:17;;;;;;;9.98;7.88;;;;;;;16.15;65.04;101360.09;5084776;28;20040;-81
2022/06/05 04:31:45;;;;;;;11.32;8.07;;;;;;;16.13;65.32;101359.38;5077804;28;20052;-81
2022/06/05 04:34:13;;;;;;;9.80;7.45;;;;;;;16.15;65.51;101360.94;5094313;28;20032;-83
2022/06/05 04:36:38;;;;;;;9.63;7.47;;;;;;;16.14;65.08;101363.75;5086560;28;20020;-81
2022/06/05 04:39:05;;;;;;;8.13;7.32;;;;;;;16.12;65.00;101366.59;5085215;28;20036;-81
2022/06/05 04:41:34;;;;;;;12.48;8.02;;;;;;;16.11;65.19;101359.53;5094108;28;20077;-81
2022/06/05 04:43:59;;;;;;;9.93;8.20;;;;;;;16.11;65.01;101362.22;5073033;28;20033;-81
2022/06/05 04:46:27;;;;;;;8.38;7.35;;;;;;;16.11;65.08;101350.66;5090389;28;20062;-81
2022/06/05 04:48:52;;;;;;;10.85;7.75;;;;;;;16.09;65.42;101357.00;5088361;28;20036;-81
2022/06/05 04:51:19;;;;;;;11.05;7.90;;;;;;;16.08;65.16;101362.50;5084951;28;20048;-81
2022/06/05 04:53:45;;;;;;;9.68;7.40;;;;;;;16.05;65.73;101360.09;5080532;28;20044;-81
2022/06/05 04:56:16;;;;;;;8.73;7.65;;;;;;;16.04;65.52;101355.72;5091930;28;20047;-81
2022/06/05 04:58:42;;;;;;;8.70;7.82;;;;;;;16.02;65.84;101366.59;5084555;28;20058;-82
2022/06/05 05:01:24;;;;;;;10.93;8.50;;;;;;;16.02;64.92;101365.72;5076587;28;20013;-81
2022/06/05 05:03:56;;;;;;;11.23;7.95;;;;;;;16.01;64.96;101362.22;5093478;28;20032;-80
2022/06/05 05:06:22;;;;;;;10.43;8.18;;;;;;;16.00;65.39;101359.66;5079575;28;20048;-81
2022/06/05 05:08:47;;;;;;;11.40;7.93;;;;;;;16.00;65.19;101360.50;5079846;28;20033;-81
2022/06/05 05:11:14;;;;;;;8.93;8.02;;;;;;;15.97;65.38;101368.84;5077558;28;20074;-80
2022/06/05 05:13:39;;;;;;;9.63;8.05;;;;;;;15.96;65.44;101374.34;5095882;28;20040;-80
2022/06/05 05:16:05;;;;;;;10.80;7.80;;;;;;;15.96;65.79;101375.19;5091258;28;20051;-82
2022/06/05 05:18:30;;;;;;;10.23;7.70;;;;;;;15.96;65.92;101369.81;5079449;28;20025;-81
2022/06/05 05:21:07;;;;;;;11.75;8.50;;;;;;;15.98;65.62;101369.69;5084152;28;20021;-81
2022/06/05 05:23:32;;;;;;;8.93;7.72;;;;;;;15.98;65.82;101369.69;5096231;28;20059;-81
2022/06/05 05:26:15;;;;;;;9.90;7.90;;;;;;;16.00;65.65;101368.53;5084775;28;20021;-82
2022/06/05 05:28:42;;;;;;;10.35;7.95;;;;;;;16.00;65.54;101371.22;5081496;28;20025;-81
2022/06/05 05:31:10;;;;;;;11.05;7.85;;;;;;;16.02;65.61;101374.63;5084358;28;20012;-81
2022/06/05 05:33:36;;;;;;;10.02;7.95;;;;;;;16.03;65.44;101370.09;5087052;28;20029;-81
2022/06/05 05:36:01;;;;;;;10.95;7.53;;;;;;;16.03;65.76;101367.44;5089976;28;20064;-80
2022/06/05 05:38:26;;;;;;;8.75;7.70;;;;;;;16.04;65.58;101369.13;5077178;28;20052;-81
2022/06/05 05:43:36;;;;;;;8.23;6.88;;;;;;;16.05;65.47;101376.16;5089208;28;20058;-81
2022/06/05 05:46:01;;;;;;;9.95;7.75;;;;;;;16.07;65.70;101368.81;5093094;28;20036;-82
2022/06/05 05:48:27;;;;;;;10.13;7.30;;;;;;;16.05;65.83;101360.97;5080558;28;20060;-80
2022/06/05 05:50:52;;;;;;;9.00;8.10;;;;;;;16.04;65.59;101369.97;5084375;28;20059;-81
2022/06/05 05:53:17;;;;;;;10.13;7.93;;;;;;;16.08;65.94;101360.66;5091918;28;20052;-78
2022/06/05 05:55:43;;;;;;;11.45;7.60;;;;;;;16.09;65.78;101359.66;5074203;28;20023;-81
2022/06/05 05:58:08;;;;;;;9.50;7.60;;;;;;;16.11;65.67;101356.00;5092327;28;20021;-82
2022/06/05 06:00:33;;;;;;;9.15;7.90;;;;;;;16.15;65.72;101349.38;5088321;28;20015;-82
2022/06/05 06:02:59;;;;;;;9.43;7.85;;;;;;;16.17;65.66;101339.34;5067001;28;20052;-81
2022/06/05 06:05:25;;;;;;;10.13;7.57;;;;;;;16.19;65.82;101340.91;5088276;28;20075;-83
2022/06/05 06:07:51;;;;;;;11.90;8.02;;;;;;;16.22;65.94;101337.09;5085909;28;20019;-83
2022/06/05 06:10:16;;;;;;;10.13;7.72;;;;;;;16.27;65.85;101332.16;5073116;28;20032;-84
2022/06/05 06:12:41;;;;;;;12.20;8.18;;;;;;;16.32;65.71;101326.34;5074789;28;20063;-83
2022/06/05 06:15:08;;;;;;;9.50;7.45;;;;;;;16.36;65.50;101330.47;5085981;28;20119;-83
2022/06/05 06:17:33;;;;;;;9.50;7.57;;;;;;;16.41;66.12;101317.47;5083747;28;20020;-82
2022/06/05 06:19:58;;;;;;;9.55;7.60;;;;;;;16.45;66.18;101308.13;5087041;28;20099;-82
2022/06/05 06:22:24;;;;;;;9.20;7.50;;;;;;;16.52;65.37;101308.41;5068170;28;20051;-83
2022/06/05 06:24:50;;;;;;;7.97;7.07;;;;;;;16.57;65.80;101309.66;5076392;28;20295;-84
2022/06/05 06:27:16;;;;;;;11.48;7.57;;;;;;;16.60;65.23;101308.50;5077900;28;20020;-83
2022/06/05 06:29:41;;;;;;;8.93;7.40;;;;;;;16.67;65.23;101295.38;5074496;28;20037;-83
2022/06/05 06:32:07;;;;;;;9.52;7.65;;;;;;;16.71;65.15;101294.94;5077539;28;20016;-81
2022/06/05 06:34:32;;;;;;;10.80;7.75;;;;;;;16.77;65.22;101291.69;5076590;28;20093;-81
2022/06/05 06:36:58;;;;;;;9.30;7.72;;;;;;;16.85;65.22;101290.13;5080511;28;20025;-84
2022/06/05 06:39:24;;;;;;;10.73;7.85;;;;;;;16.92;65.02;101285.84;5070862;28;20047;-82
2022/06/05 06:41:49;;;;;;;12.98;8.35;;;;;;;16.97;64.80;101279.06;5073445;28;20033;-79
2022/06/05 06:44:15;;;;;;;8.73;7.82;;;;;;;17.05;64.83;101274.75;5071262;28;20029;-81
2022/06/05 06:46:41;;;;;;;11.07;8.07;;;;;;;17.10;64.33;101267.97;5069336;28;20037;-81
2022/06/05 06:49:07;;;;;;;9.30;8.32;;;;;;;17.16;64.38;101255.78;5077253;28;20029;-81
2022/06/05 06:51:33;;;;;;;9.05;7.93;;;;;;;17.24;64.64;101260.41;5076514;28;20031;-82
2022/06/05 06:53:58;;;;;;;11.15;8.40;;;;;;;17.26;63.96;101256.56;5076722;28;20079;-81
2022/06/05 06:56:28;;;;;;;9.75;8.20;;;;;;;17.33;64.04;101265.69;5077809;28;20017;-82
2022/06/05 06:58:54;;;;;;;9.77;8.40;;;;;;;17.42;63.43;101277.38;5077490;28;20060;-81
2022/06/05 07:01:20;;;;;;;9.05;8.00;;;;;;;17.50;63.51;101273.91;5085679;28;20025;-82
2022/06/05 07:03:45;;;;;;;8.38;7.57;;;;;;;17.60;63.74;101271.16;5073514;28;20051;-80
2022/06/05 07:06:14;;;;;;;8.90;8.00;;;;;;;17.67;62.97;101269.53;5074849;28;20024;-81
2022/06/05 07:08:41;;;;;;;10.93;7.90;;;;;;;17.76;63.01;101258.72;5075895;28;20037;-81
2022/06/05 07:11:08;;;;;;;9.60;7.50;;;;;;;17.90;62.76;101260.06;5080576;28;20111;-81
2022/06/05 07:13:35;;;;;;;9.27;7.88;;;;;;;18.00;62.14;101259.97;5080620;28;20077;-81
2022/06/05 07:16:00;;;;;;;10.27;7.88;;;;;;;18.13;62.58;101243.41;5086552;28;20114;-80
2022/06/05 07:18:26;;;;;;;8.77;7.28;;;;;;;18.27;62.57;101250.09;5072916;28;20021;-80
2022/06/05 07:20:51;;;;;;;7.93;7.10;;;;;;;18.36;61.61;101243.75;5091202;28;20025;-80
2022/06/05 07:23:17;;;;;;;8.32;7.53;;;;;;;18.50;61.88;101250.38;5088572;28;20024;-81
2022/06/05 07:25:49;;;;;;;12.80;7.88;;;;;;;18.65;61.68;101239.84;5071353;28;20099;-81
2022/06/05 07:28:15;;;;;;;8.73;7.18;;;;;;;18.81;61.19;101241.78;5088190;28;20047;-81
2022/06/05 07:30:45;;;;;;;7.88;7.10;;;;;;;18.93;60.50;101235.13;5091866;28;20040;-81
2022/06/05 07:33:13;;;;;;;8.65;7.70;;;;;;;19.08;61.13;101226.44;5085213;28;20028;-81
2022/06/05 07:35:38;;;;;;;9.40;8.10;;;;;;;19.20;60.19;101233.19;5083730;28;20045;-80
2022/06/05 07:38:04;;;;;;;9.02;7.15;;;;;;;19.32;60.16;101229.19;5088801;28;20035;-81
2022/06/05 07:40:29;;;;;;;8.20;7.28;;;;;;;19.41;59.20;101221.94;5082732;28;20017;-80
2022/06/05 07:42:54;;;;;;;8.82;7.50;;;;;;;19.52;60.35;101215.41;5080164;28;20016;-81
2022/06/05 07:45:20;;;;;;;8.77;7.50;;;;;;;19.61;59.23;101217.06;5071857;28;20024;-81
2022/06/05 07:47:45;;;;;;;9.82;7.90;;;;;;;19.73;59.29;101223.84;5088973;28;20040;-78
2022/06/05 07:50:12;;;;;;;8.60;7.80;;;;;;;19.85;58.85;101218.97;5083968;28;20174;-80
2022/06/05 07:55:22;;;;;;;11.55;8.02;;;;;;;19.97;57.63;101214.06;5082129;28;20056;-82
2022/06/05 07:57:48;;;;;;;9.68;7.45;;;;;;;20.15;57.99;101213.84;5079804;28;20025;-79
2022/06/05 08:00:14;;;;;;;8.90;7.53;;;;;;;20.27;57.99;101209.81;5083910;28;20025;-81
2022/06/05 08:02:40;;;;;;;8.15;7.45;;;;;;;20.41;57.48;101205.53;5093491;28;20021;-81
2022/06/05 08:05:06;;;;;;;8.43;7.13;;;;;;;20.59;56.85;101204.47;5088682;28;20084;-81
2022/06/05 08:07:33;;;;;;;8.70;7.88;;;;;;;20.70;56.34;101204.13;5079985;28;20044;-81
2022/06/05 08:10:00;;;;;;;8.88;7.68;;;;;;;20.82;56.25;101200.03;5089115;28;20036;-81
2022/06/05 08:12:32;;;;;;;7.85;7.00;;;;;;;20.98;56.02;101201.78;5083215;28;20060;-80
2022/06/05 08:15:02;;;;;;;8.20;7.40;;;;;;;21.12;55.63;101194.78;5073844;28;20028;-79
2022/06/05 08:17:31;;;;;;;7.88;7.15;;;;;;;21.39;55.52;101179.91;5062525;28;20071;-78
2022/06/05 08:19:57;;;;;;;10.75;8.32;;;;;;;21.69;55.36;101174.63;5093617;28;20044;-78
2022/06/05 08:22:24;;;;;;;8.63;7.20;;;;;;;22.10;54.06;101178.78;5096209;28;20037;-81
2022/06/05 08:24:50;;;;;;;9.95;7.43;;;;;;;22.43;52.98;101176.59;5084934;28;20032;-77
2022/06/05 08:27:19;;;;;;;11.50;7.57;;;;;;;22.63;52.01;101170.56;5092249;28;20048;-80
2022/06/05 08:29:45;;;;;;;9.32;6.90;;;;;;;22.80;52.26;101177.47;5085405;28;20088;-80
2022/06/05 08:32:13;;;;;;;9.98;7.10;;;;;;;22.99;52.27;101180.59;5088337;28;20013;-81
2022/06/05 08:34:38;;;;;;;8.00;7.30;;;;;;;23.11;51.18;101176.38;5085753;28;20020;-81
2022/06/05 08:42:53;;;;;;;8.65;7.15;;;;;;;23.43;51.44;101175.03;5076484;28;20074;-77
2022/06/05 08:45:42;;;;;;;8.30;7.35;;;;;;;23.54;51.17;101172.81;5071813;28;20021;-78
2022/06/05 08:48:19;;;;;;;7.43;6.75;;;;;;;23.63;51.39;101175.22;5093131;28;20036;-78
2022/06/05 08:50:48;;;;;;;10.20;7.10;;;;;;;23.65;50.17;101178.56;5083513;28;20020;-80
2022/06/05 08:53:21;;;;;;;8.68;7.65;;;;;;;23.59;50.58;101181.22;5085783;28;20017;-80
2022/06/05 08:55:51;;;;;;;8.32;6.88;;;;;;;23.60;51.15;101177.47;5088694;28;20037;-79
2022/06/05 08:58:26;;;;;;;9.60;7.32;;;;;;;23.48;51.32;101179.84;5081517;28;20024;-80
2022/06/05 09:01:07;;;;;;;9.68;7.10;;;;;;;23.51;51.20;101181.34;5069868;28;20059;-80
2022/06/05 09:03:48;;;;;;;8.10;6.70;;;;;;;23.47;50.84;101183.63;5075773;28;20081;-80
2022/06/05 09:06:32;;;;;;;9.77;7.85;;;;;;;23.38;51.46;101195.59;5077704;28;20029;-80
2022/06/05 09:09:05;;;;;;;8.00;7.20;;;;;;;23.09;50.75;101191.97;5078040;28;20053;-80
2022/06/05 09:12:01;;;;;;;7.78;7.07;;;;;;;23.03;51.89;101180.03;5082014;28;20028;-78
2022/06/05 09:14:45;;;;;;;9.63;7.63;;;;;;;22.96;51.84;101184.50;5074592;28;20032;-79
2022/06/05 09:17:15;;;;;;;8.48;7.35;;;;;;;22.86;52.33;101182.09;5077061;28;20060;-78
2022/06/05 09:19:42;;;;;;;9.98;7.97;;;;;;;22.74;52.37;101178.22;5081245;28;20012;-78
2022/06/05 09:22:18;;;;;;;12.63;8.48;;;;;;;22.70;52.60;101180.47;5078929;28;20081;-79
2022/06/05 09:25:08;;;;;;;9.13;7.38;;;;;;;22.78;53.43;101178.69;5076921;28;20080;-79
2022/06/05 09:28:08;;;;;;;10.15;7.95;;;;;;;22.73;53.39;101180.09;5080987;28;20025;-76
2022/06/05 09:30:49;;;;;;;10.20;7.55;;;;;;;22.57;53.46;101172.19;5071519;28;20030;-80
2022/06/05 09:33:19;;;;;;;9.27;7.63;;;;;;;22.46;53.43;101173.50;5068484;28;20024;-80
2022/06/05 09:35:50;;;;;;;10.05;7.57;;;;;;;22.48;53.42;101165.19;5082347;28;20023;-79
2022/06/05 09:38:57;;;;;;;8.30;7.35;;;;;;;22.51;54.33;101172.94;5083670;28;20028;-79
2022/06/05 09:41:43;;;;;;;8.35;7.47;;;;;;;22.42;53.95;101169.50;5090063;28;20044;-78
2022/06/05 09:44:45;;;;;;;8.15;7.35;;;;;;;22.44;53.89;101161.19;5083725;28;20043;-80
2022/06/05 09:47:25;;;;;;;11.07;7.45;;;;;;;22.31;54.46;101159.13;5078321;28;20038;-79
2022/06/05 09:50:00;;;;;;;8.45;7.38;;;;;;;22.25;54.63;101158.00;5080503;28;20019;-79
2022/06/05 09:52:28;;;;;;;8.88;8.00;;;;;;;22.11;55.11;101148.84;5079342;28;20086;-79
2022/06/05 09:55:18;;;;;;;8.02;7.22;;;;;;;22.14;55.01;101144.94;5078201;28;20016;-79
2022/06/05 09:58:41;;;;;;;13.35;8.00;;;;;;;22.13;55.26;101137.81;5074442;28;20033;-79
2022/06/05 10:01:20;;;;;;;8.23;7.43;;;;;;;22.03;55.66;101129.16;5047509;28;20085;-79
2022/06/05 10:03:47;;;;;;;11.23;7.93;;;;;;;22.02;56.52;101119.38;5075208;28;20013;-79
2022/06/05 10:06:25;;;;;;;8.57;7.68;;;;;;;21.99;56.55;101120.59;5074682;28;20021;-81
2022/06/05 10:08:57;;;;;;;10.27;7.88;;;;;;;21.91;57.85;101121.50;5063202;28;20055;-79
2022/06/05 10:11:33;;;;;;;8.65;7.78;;;;;;;21.84;58.83;101117.88;5085242;28;20089;-80
2022/06/05 10:14:06;;;;;;;10.60;8.55;;;;;;;21.82;59.01;101119.91;5078620;28;20039;-78
2022/06/05 10:16:45;;;;;;;10.00;8.68;;;;;;;21.74;59.12;101115.44;5066079;28;20033;-79
2022/06/05 10:19:10;;;;;;;8.65;7.85;;;;;;;21.71;59.33;101117.66;5078435;28;20043;-80
2022/06/05 10:21:41;;;;;;;9.57;8.63;;;;;;;21.65;61.02;101116.56;5077456;28;20036;-79
2022/06/05 10:24:25;;;;;;;9.57;8.68;;;;;;;21.66;60.79;101120.91;5084382;28;20013;-80
2022/06/05 10:27:02;;;;;;;9.50;8.60;;;;;;;21.61;60.95;101117.94;5071266;28;20043;-81
2022/06/05 10:29:33;;;;;;;9.88;8.70;;;;;;;21.51;61.67;101126.28;5077782;28;20016;-79
2022/06/05 10:32:17;;;;;;;9.50;8.45;;;;;;;21.46;62.77;101122.44;5077324;28;20044;-80
2022/06/05 10:35:11;;;;;;;11.45;9.55;;;;;;;21.46;62.38;101123.25;5077704;28;20077;-81
2022/06/05 10:37:56;;;;;;;10.02;8.98;;;;;;;21.47;60.80;101116.00;5064762;28;20033;-81
2022/06/05 10:40:30;;;;;;;11.77;8.40;;;;;;;21.39;62.92;101115.06;5065802;28;20044;-81
2022/06/05 10:43:01;;;;;;;14.30;9.13;;;;;;;21.36;63.69;101112.72;5077427;28;20034;-82
2022/06/05 10:45:49;;;;;;;11.63;9.15;;;;;;;21.39;63.64;101112.34;5074141;28;20024;-81
2022/06/05 10:48:36;;;;;;;10.45;9.32;;;;;;;21.40;63.65;101118.59;5076213;28;20047;-81
2022/06/05 10:51:16;;;;;;;11.57;9.15;;;;;;;21.32;65.22;101114.09;5076408;28;20096;-81
2022/06/05 10:53:50;;;;;;;9.77;8.90;;;;;;;21.25;65.78;101114.00;5084051;28;20047;-81
2022/06/05 10:56:32;;;;;;;10.20;9.25;;;;;;;21.19;65.56;101113.88;5078479;28;20025;-81
2022/06/05 10:59:08;;;;;;;10.23;9.32;;;;;;;21.15;65.16;101115.25;5086208;28;20040;-81
2022/06/05 11:01:55;;;;;;;12.07;10.00;;;;;;;21.13;64.75;101111.88;5063651;28;20025;-81
2022/06/05 11:04:38;;;;;;;11.15;10.05;;;;;;;21.03;65.57;101106.72;5063101;28;20040;-82
2022/06/05 11:07:47;;;;;;;11.18;10.15;;;;;;;20.98;65.24;101112.66;5077018;28;20021;-82
2022/06/05 11:10:13;;;;;;;20.15;12.77;;;;;;;20.84;70.69;101113.44;5073468;28;20061;-80
2022/06/05 11:16:11;;;;;;;16.60;13.35;;;;;;;20.69;71.26;101114.19;5062472;28;20064;-79
2022/06/05 11:19:28;;;;;;;15.38;12.20;;;;;;;20.58;70.51;101119.13;5071434;28;20055;-79
2022/06/05 11:21:56;;;;;;;13.45;12.02;;;;;;;20.31;74.18;101110.50;5045085;28;20036;-81
2022/06/05 11:24:29;;;;;;;14.20;12.53;;;;;;;20.25;75.13;101113.88;5077669;28;20031;-82
2022/06/05 11:27:05;;;;;;;13.32;11.93;;;;;;;20.15;76.34;101106.84;5079978;28;20013;-80
2022/06/05 11:30:09;;;;;;;15.73;12.13;;;;;;;20.21;74.15;101097.22;5080408;28;20051;-80
2022/06/05 11:32:48;;;;;;;14.25;12.75;;;;;;;20.12;76.93;101091.00;5074845;28;20037;-79
2022/06/05 11:35:33;;;;;;;17.83;13.45;;;;;;;20.15;76.12;101093.38;5081783;28;20033;-79
2022/06/05 11:38:23;;;;;;;14.55;12.60;;;;;;;20.12;75.63;101093.72;5075476;28;20021;-78
2022/06/05 11:40:59;;;;;;;18.08;12.75;;;;;;;20.04;78.00;101096.44;5069023;28;20121;-79
2022/06/05 11:43:30;;;;;;;16.90;13.98;;;;;;;19.99;78.99;101084.50;5073336;28;20044;-79
2022/06/05 11:46:03;;;;;;;20.80;13.57;;;;;;;19.98;78.31;101082.81;5075852;28;20013;-81
2022/06/05 11:48:50;;;;;;;17.73;14.32;;;;;;;19.84;80.36;101082.50;5071667;28;20017;-80
2022/06/05 11:51:37;;;;;;;17.35;14.75;;;;;;;19.85;80.89;101086.91;5086284;28;20038;-81
2022/06/05 11:54:21;;;;;;;17.65;15.32;;;;;;;19.82;79.92;101080.97;5078624;28;20096;-81
2022/06/05 11:57:06;;;;;;;18.05;16.25;;;;;;;19.69;81.32;101081.50;5078574;28;20021;-81
2022/06/05 11:59:35;;;;;;;18.92;17.08;;;;;;;19.62;82.75;101088.56;5080778;28;20021;-82
2022/06/05 12:02:24;;;;;;;14.85;13.38;;;;;;;19.71;79.23;101083.00;5077431;28;20020;-81
2022/06/05 12:05:12;;;;;;;16.52;15.02;;;;;;;19.62;82.01;101084.06;5081354;28;20044;-82